sensor_id;sensor_type;location;lat;lon;timestamp;temperature;humidity
55091;DHT22;40985;53.180;5.800;2023-04-06T00:01:38;1.90;99.90
55091;DHT22;40985;53.180;5.800;2023-04-06T00:04:03;1.90;99.90
55091;DHT22;40985;53.180;5.800;2023-04-06T00:06:29;1.90;99.90
55091;DHT22;40985;53.180;5.800;2023-04-06T00:08:55;1.80;99.90
55091;DHT22;40985;53.180;5.800;2023-04-06T00:11:22;1.80;99.90
55091;DHT22;40985;53.180;5.800;2023-04-06T00:13:48;1.70;99.90
55091;DHT22;40985;53.180;5.800;2023-04-06T00:16:14;1.70;99.90
55091;DHT22;40985;53.180;5.800;2023-04-06T00:18:40;1.70;99.90
55091;DHT22;40985;53.180;5.800;2023-04-06T00:21:05;1.60;99.90
55091;DHT22;40985;53.180;5.800;2023-04-06T00:23:31;1.60;99.90
55091;DHT22;40985;53.180;5.800;2023-04-06T00:25:57;1.60;99.90
55091;DHT22;40985;53.180;5.800;2023-04-06T00:28:23;1.60;99.90
55091;DHT22;40985;53.180;5.800;2023-04-06T00:30:52;1.50;99.90
55091;DHT22;40985;53.180;5.800;2023-04-06T00:33:19;1.50;99.90
55091;DHT22;40985;53.180;5.800;2023-04-06T00:35:45;1.50;99.90
55091;DHT22;40985;53.180;5.800;2023-04-06T00:38:12;1.50;99.90
55091;DHT22;40985;53.180;5.800;2023-04-06T00:40:38;1.50;99.90
55091;DHT22;40985;53.180;5.800;2023-04-06T00:43:05;1.50;99.90
55091;DHT22;40985;53.180;5.800;2023-04-06T00:45:32;1.50;99.90
55091;DHT22;40985;53.180;5.800;2023-04-06T00:47:58;1.50;99.90
55091;DHT22;40985;53.180;5.800;2023-04-06T00:50:24;1.50;99.90
55091;DHT22;40985;53.180;5.800;2023-04-06T00:52:50;1.40;99.90
55091;DHT22;40985;53.180;5.800;2023-04-06T00:55:16;1.40;99.90
55091;DHT22;40985;53.180;5.800;2023-04-06T00:57:42;1.50;99.90
55091;DHT22;40985;53.180;5.800;2023-04-06T01:00:08;1.40;99.90
55091;DHT22;40985;53.180;5.800;2023-04-06T01:02:34;1.30;99.90
55091;DHT22;40985;53.180;5.800;2023-04-06T01:05:00;1.30;99.90
55091;DHT22;40985;53.180;5.800;2023-04-06T01:07:25;1.30;99.90
55091;DHT22;40985;53.180;5.800;2023-04-06T01:09:53;1.30;99.90
55091;DHT22;40985;53.180;5.800;2023-04-06T01:12:19;1.30;99.90
55091;DHT22;40985;53.180;5.800;2023-04-06T01:14:45;1.30;99.90
55091;DHT22;40985;53.180;5.800;2023-04-06T01:17:11;1.30;99.90
55091;DHT22;40985;53.180;5.800;2023-04-06T01:19:37;1.30;99.90
55091;DHT22;40985;53.180;5.800;2023-04-06T01:22:03;1.20;99.90
55091;DHT22;40985;53.180;5.800;2023-04-06T01:24:28;1.20;99.90
55091;DHT22;40985;53.180;5.800;2023-04-06T01:26:54;1.20;99.90
55091;DHT22;40985;53.180;5.800;2023-04-06T01:29:21;1.20;99.90
55091;DHT22;40985;53.180;5.800;2023-04-06T01:31:47;1.20;99.90
55091;DHT22;40985;53.180;5.800;2023-04-06T01:34:13;1.20;99.90
55091;DHT22;40985;53.180;5.800;2023-04-06T01:36:39;1.20;99.90
55091;DHT22;40985;53.180;5.800;2023-04-06T01:39:05;1.20;99.90
55091;DHT22;40985;53.180;5.800;2023-04-06T01:41:30;1.10;99.90
55091;DHT22;40985;53.180;5.800;2023-04-06T01:43:56;1.20;99.90
55091;DHT22;40985;53.180;5.800;2023-04-06T01:46:22;1.20;99.90
55091;DHT22;40985;53.180;5.800;2023-04-06T01:48:48;1.20;99.90
55091;DHT22;40985;53.180;5.800;2023-04-06T01:51:14;1.10;99.90
55091;DHT22;40985;53.180;5.800;2023-04-06T01:53:40;1.20;99.90
55091;DHT22;40985;53.180;5.800;2023-04-06T01:56:06;1.20;99.90
55091;DHT22;40985;53.180;5.800;2023-04-06T01:58:34;1.10;99.90
55091;DHT22;40985;53.180;5.800;2023-04-06T02:01:00;1.10;99.90
55091;DHT22;40985;53.180;5.800;2023-04-06T02:03:26;1.10;99.90
55091;DHT22;40985;53.180;5.800;2023-04-06T02:05:52;1.10;99.90
55091;DHT22;40985;53.180;5.800;2023-04-06T02:08:18;1.10;99.90
55091;DHT22;40985;53.180;5.800;2023-04-06T02:10:44;1.00;99.90
55091;DHT22;40985;53.180;5.800;2023-04-06T02:13:09;1.10;99.90
55091;DHT22;40985;53.180;5.800;2023-04-06T02:15:35;1.00;99.90
55091;DHT22;40985;53.180;5.800;2023-04-06T02:18:01;1.00;99.90
55091;DHT22;40985;53.180;5.800;2023-04-06T02:20:26;1.00;99.90
55091;DHT22;40985;53.180;5.800;2023-04-06T02:22:52;1.00;99.90
55091;DHT22;40985;53.180;5.800;2023-04-06T02:25:18;0.90;99.90
55091;DHT22;40985;53.180;5.800;2023-04-06T02:27:43;0.90;99.90
55091;DHT22;40985;53.180;5.800;2023-04-06T02:30:10;0.90;99.90
55091;DHT22;40985;53.180;5.800;2023-04-06T02:32:37;0.90;99.90
55091;DHT22;40985;53.180;5.800;2023-04-06T02:35:03;0.90;99.90
55091;DHT22;40985;53.180;5.800;2023-04-06T02:37:29;0.80;99.90
55091;DHT22;40985;53.180;5.800;2023-04-06T02:39:54;0.80;99.90
55091;DHT22;40985;53.180;5.800;2023-04-06T02:42:20;0.80;99.90
55091;DHT22;40985;53.180;5.800;2023-04-06T02:44:46;0.80;99.90
55091;DHT22;40985;53.180;5.800;2023-04-06T02:47:12;0.70;99.90
55091;DHT22;40985;53.180;5.800;2023-04-06T02:49:37;0.70;99.90
55091;DHT22;40985;53.180;5.800;2023-04-06T02:52:03;0.70;99.90
55091;DHT22;40985;53.180;5.800;2023-04-06T02:54:29;0.70;99.90
55091;DHT22;40985;53.180;5.800;2023-04-06T02:56:55;0.70;99.90
55091;DHT22;40985;53.180;5.800;2023-04-06T02:59:20;0.70;99.90
55091;DHT22;40985;53.180;5.800;2023-04-06T03:01:46;0.70;99.90
55091;DHT22;40985;53.180;5.800;2023-04-06T03:04:12;0.60;99.90
55091;DHT22;40985;53.180;5.800;2023-04-06T03:06:38;0.60;99.90
55091;DHT22;40985;53.180;5.800;2023-04-06T03:09:04;0.60;99.90
55091;DHT22;40985;53.180;5.800;2023-04-06T03:11:29;0.60;99.90
55091;DHT22;40985;53.180;5.800;2023-04-06T03:13:55;0.60;99.90
55091;DHT22;40985;53.180;5.800;2023-04-06T03:16:21;0.50;99.90
55091;DHT22;40985;53.180;5.800;2023-04-06T03:18:46;0.50;99.90
55091;DHT22;40985;53.180;5.800;2023-04-06T03:21:13;0.50;99.90
55091;DHT22;40985;53.180;5.800;2023-04-06T03:23:41;0.50;99.90
55091;DHT22;40985;53.180;5.800;2023-04-06T03:26:06;0.50;99.90
55091;DHT22;40985;53.180;5.800;2023-04-06T03:28:32;0.60;99.90
55091;DHT22;40985;53.180;5.800;2023-04-06T03:30:58;0.50;99.90
55091;DHT22;40985;53.180;5.800;2023-04-06T03:33:24;0.50;99.90
55091;DHT22;40985;53.180;5.800;2023-04-06T03:35:53;0.50;99.90
55091;DHT22;40985;53.180;5.800;2023-04-06T03:38:18;0.50;99.90
55091;DHT22;40985;53.180;5.800;2023-04-06T03:40:44;0.60;99.90
55091;DHT22;40985;53.180;5.800;2023-04-06T03:43:10;0.50;99.90
55091;DHT22;40985;53.180;5.800;2023-04-06T03:45:35;0.50;99.90
55091;DHT22;40985;53.180;5.800;2023-04-06T03:48:02;0.60;99.90
55091;DHT22;40985;53.180;5.800;2023-04-06T03:50:27;0.50;99.90
55091;DHT22;40985;53.180;5.800;2023-04-06T03:52:53;0.60;99.90
55091;DHT22;40985;53.180;5.800;2023-04-06T03:55:19;0.50;99.90
55091;DHT22;40985;53.180;5.800;2023-04-06T03:57:44;0.60;99.90
55091;DHT22;40985;53.180;5.800;2023-04-06T04:00:11;0.50;99.90
55091;DHT22;40985;53.180;5.800;2023-04-06T04:02:37;0.50;99.90
55091;DHT22;40985;53.180;5.800;2023-04-06T04:05:03;0.50;99.90
55091;DHT22;40985;53.180;5.800;2023-04-06T04:07:29;0.50;99.90
55091;DHT22;40985;53.180;5.800;2023-04-06T04:09:54;0.50;99.90
55091;DHT22;40985;53.180;5.800;2023-04-06T04:12:20;0.50;99.90
55091;DHT22;40985;53.180;5.800;2023-04-06T04:14:46;0.50;99.90
55091;DHT22;40985;53.180;5.800;2023-04-06T04:17:11;0.60;99.90
55091;DHT22;40985;53.180;5.800;2023-04-06T04:19:37;0.50;99.90
55091;DHT22;40985;53.180;5.800;2023-04-06T04:22:03;0.50;99.90
55091;DHT22;40985;53.180;5.800;2023-04-06T04:24:30;0.50;99.90
55091;DHT22;40985;53.180;5.800;2023-04-06T04:26:56;0.60;99.90
55091;DHT22;40985;53.180;5.800;2023-04-06T04:29:22;0.60;99.90
55091;DHT22;40985;53.180;5.800;2023-04-06T04:31:49;0.60;99.90
55091;DHT22;40985;53.180;5.800;2023-04-06T04:34:15;0.60;99.90
55091;DHT22;40985;53.180;5.800;2023-04-06T04:36:41;0.60;99.90
55091;DHT22;40985;53.180;5.800;2023-04-06T04:39:08;0.60;99.90
55091;DHT22;40985;53.180;5.800;2023-04-06T04:41:33;0.70;99.90
55091;DHT22;40985;53.180;5.800;2023-04-06T04:43:59;0.60;99.90
55091;DHT22;40985;53.180;5.800;2023-04-06T04:46:25;0.70;99.90
55091;DHT22;40985;53.180;5.800;2023-04-06T04:48:51;0.70;99.90
55091;DHT22;40985;53.180;5.800;2023-04-06T04:51:18;0.70;99.90
55091;DHT22;40985;53.180;5.800;2023-04-06T04:53:48;0.80;99.90
55091;DHT22;40985;53.180;5.800;2023-04-06T04:56:13;0.80;99.90
55091;DHT22;40985;53.180;5.800;2023-04-06T04:58:39;0.80;99.90
55091;DHT22;40985;53.180;5.800;2023-04-06T05:01:05;0.80;99.90
55091;DHT22;40985;53.180;5.800;2023-04-06T05:03:32;0.80;99.90
55091;DHT22;40985;53.180;5.800;2023-04-06T05:05:58;0.80;99.90
55091;DHT22;40985;53.180;5.800;2023-04-06T05:08:24;0.80;99.90
55091;DHT22;40985;53.180;5.800;2023-04-06T05:10:50;0.80;99.90
55091;DHT22;40985;53.180;5.800;2023-04-06T05:13:16;0.90;99.90
55091;DHT22;40985;53.180;5.800;2023-04-06T05:15:41;0.90;99.90
55091;DHT22;40985;53.180;5.800;2023-04-06T05:18:08;0.90;99.90
55091;DHT22;40985;53.180;5.800;2023-04-06T05:20:35;1.00;99.90
55091;DHT22;40985;53.180;5.800;2023-04-06T05:23:01;1.00;99.90
55091;DHT22;40985;53.180;5.800;2023-04-06T05:25:27;1.10;99.90
55091;DHT22;40985;53.180;5.800;2023-04-06T05:27:53;1.10;99.90
55091;DHT22;40985;53.180;5.800;2023-04-06T05:30:19;1.10;99.90
55091;DHT22;40985;53.180;5.800;2023-04-06T05:32:46;1.10;99.90
55091;DHT22;40985;53.180;5.800;2023-04-06T05:35:12;1.20;99.90
55091;DHT22;40985;53.180;5.800;2023-04-06T05:37:39;1.30;99.90
55091;DHT22;40985;53.180;5.800;2023-04-06T05:40:05;1.20;99.90
55091;DHT22;40985;53.180;5.800;2023-04-06T05:42:41;1.30;99.90
55091;DHT22;40985;53.180;5.800;2023-04-06T05:45:09;1.30;99.90
55091;DHT22;40985;53.180;5.800;2023-04-06T05:47:36;1.30;99.90
55091;DHT22;40985;53.180;5.800;2023-04-06T05:50:03;1.40;99.90
55091;DHT22;40985;53.180;5.800;2023-04-06T05:52:28;1.40;99.90
55091;DHT22;40985;53.180;5.800;2023-04-06T05:54:54;1.40;99.90
55091;DHT22;40985;53.180;5.800;2023-04-06T05:57:20;1.40;99.90
55091;DHT22;40985;53.180;5.800;2023-04-06T05:59:46;1.50;99.90
55091;DHT22;40985;53.180;5.800;2023-04-06T06:02:11;1.50;99.90
55091;DHT22;40985;53.180;5.800;2023-04-06T06:04:37;1.60;99.90
55091;DHT22;40985;53.180;5.800;2023-04-06T06:07:03;1.60;99.90
55091;DHT22;40985;53.180;5.800;2023-04-06T06:09:29;1.70;99.90
55091;DHT22;40985;53.180;5.800;2023-04-06T06:11:56;1.70;99.90
55091;DHT22;40985;53.180;5.800;2023-04-06T06:14:21;1.70;99.90
55091;DHT22;40985;53.180;5.800;2023-04-06T06:16:47;1.80;99.90
55091;DHT22;40985;53.180;5.800;2023-04-06T06:19:13;1.80;99.90
55091;DHT22;40985;53.180;5.800;2023-04-06T06:21:39;1.90;99.90
55091;DHT22;40985;53.180;5.800;2023-04-06T06:24:05;1.90;99.90
55091;DHT22;40985;53.180;5.800;2023-04-06T06:26:31;2.00;99.90
55091;DHT22;40985;53.180;5.800;2023-04-06T06:28:57;2.10;99.90
55091;DHT22;40985;53.180;5.800;2023-04-06T06:31:22;2.30;99.90
55091;DHT22;40985;53.180;5.800;2023-04-06T06:33:51;2.30;99.90
55091;DHT22;40985;53.180;5.800;2023-04-06T06:36:17;2.40;99.90
55091;DHT22;40985;53.180;5.800;2023-04-06T06:38:44;2.40;99.90
55091;DHT22;40985;53.180;5.800;2023-04-06T06:41:10;2.50;99.90
55091;DHT22;40985;53.180;5.800;2023-04-06T06:43:37;2.60;99.90
55091;DHT22;40985;53.180;5.800;2023-04-06T06:46:04;2.70;99.90
55091;DHT22;40985;53.180;5.800;2023-04-06T06:48:30;2.80;99.90
55091;DHT22;40985;53.180;5.800;2023-04-06T06:50:56;2.90;99.90
55091;DHT22;40985;53.180;5.800;2023-04-06T06:53:23;3.10;99.90
55091;DHT22;40985;53.180;5.800;2023-04-06T06:55:49;3.30;99.90
55091;DHT22;40985;53.180;5.800;2023-04-06T06:58:17;3.60;99.90
55091;DHT22;40985;53.180;5.800;2023-04-06T07:00:43;3.80;99.90
55091;DHT22;40985;53.180;5.800;2023-04-06T07:03:10;4.00;99.90
55091;DHT22;40985;53.180;5.800;2023-04-06T07:05:45;4.10;99.90
55091;DHT22;40985;53.180;5.800;2023-04-06T07:08:16;4.30;99.90
55091;DHT22;40985;53.180;5.800;2023-04-06T07:10:41;4.40;99.90
55091;DHT22;40985;53.180;5.800;2023-04-06T07:13:07;4.50;99.90
55091;DHT22;40985;53.180;5.800;2023-04-06T07:15:36;4.60;99.90
55091;DHT22;40985;53.180;5.800;2023-04-06T07:18:02;4.70;99.90
55091;DHT22;40985;53.180;5.800;2023-04-06T07:20:29;4.70;99.90
55091;DHT22;40985;53.180;5.800;2023-04-06T07:22:55;4.80;99.90
55091;DHT22;40985;53.180;5.800;2023-04-06T07:25:20;4.80;99.90
55091;DHT22;40985;53.180;5.800;2023-04-06T07:27:49;4.80;99.90
55091;DHT22;40985;53.180;5.800;2023-04-06T07:30:15;4.80;99.90
55091;DHT22;40985;53.180;5.800;2023-04-06T07:32:43;4.90;99.90
55091;DHT22;40985;53.180;5.800;2023-04-06T07:35:09;4.90;99.90
55091;DHT22;40985;53.180;5.800;2023-04-06T07:37:35;4.90;99.90
55091;DHT22;40985;53.180;5.800;2023-04-06T07:40:01;5.00;99.90
55091;DHT22;40985;53.180;5.800;2023-04-06T07:42:27;5.10;99.90
55091;DHT22;40985;53.180;5.800;2023-04-06T07:45:02;5.20;99.90
55091;DHT22;40985;53.180;5.800;2023-04-06T07:47:32;5.30;99.90
55091;DHT22;40985;53.180;5.800;2023-04-06T07:49:59;5.30;99.90
55091;DHT22;40985;53.180;5.800;2023-04-06T07:52:26;5.30;99.90
55091;DHT22;40985;53.180;5.800;2023-04-06T07:54:52;5.40;99.90
55091;DHT22;40985;53.180;5.800;2023-04-06T07:57:18;5.50;99.90
55091;DHT22;40985;53.180;5.800;2023-04-06T07:59:44;5.60;99.90
55091;DHT22;40985;53.180;5.800;2023-04-06T08:02:09;5.80;99.90
55091;DHT22;40985;53.180;5.800;2023-04-06T08:04:36;6.00;99.90
55091;DHT22;40985;53.180;5.800;2023-04-06T08:07:02;6.20;99.90
55091;DHT22;40985;53.180;5.800;2023-04-06T08:09:29;6.30;99.90
55091;DHT22;40985;53.180;5.800;2023-04-06T08:11:55;6.50;99.90
55091;DHT22;40985;53.180;5.800;2023-04-06T08:14:22;6.70;99.90
55091;DHT22;40985;53.180;5.800;2023-04-06T08:16:49;6.80;99.90
55091;DHT22;40985;53.180;5.800;2023-04-06T08:19:14;7.00;99.90
55091;DHT22;40985;53.180;5.800;2023-04-06T08:21:43;7.20;99.90
55091;DHT22;40985;53.180;5.800;2023-04-06T08:24:10;7.30;99.90
55091;DHT22;40985;53.180;5.800;2023-04-06T08:26:39;7.50;99.90
55091;DHT22;40985;53.180;5.800;2023-04-06T08:29:06;7.70;99.90
55091;DHT22;40985;53.180;5.800;2023-04-06T08:31:35;7.90;99.90
55091;DHT22;40985;53.180;5.800;2023-04-06T08:34:10;7.90;99.90
55091;DHT22;40985;53.180;5.800;2023-04-06T08:36:36;8.10;99.90
55091;DHT22;40985;53.180;5.800;2023-04-06T08:39:02;8.10;99.90
55091;DHT22;40985;53.180;5.800;2023-04-06T08:41:28;8.10;99.90
55091;DHT22;40985;53.180;5.800;2023-04-06T08:44:00;8.10;99.90
55091;DHT22;40985;53.180;5.800;2023-04-06T08:46:27;8.20;99.90
55091;DHT22;40985;53.180;5.800;2023-04-06T08:49:00;8.30;99.90
55091;DHT22;40985;53.180;5.800;2023-04-06T08:51:28;8.40;99.90
55091;DHT22;40985;53.180;5.800;2023-04-06T08:53:57;8.60;99.90
55091;DHT22;40985;53.180;5.800;2023-04-06T08:56:29;8.60;99.90
55091;DHT22;40985;53.180;5.800;2023-04-06T08:58:56;8.80;99.90
55091;DHT22;40985;53.180;5.800;2023-04-06T09:01:26;8.80;99.90
55091;DHT22;40985;53.180;5.800;2023-04-06T09:03:57;8.90;99.90
55091;DHT22;40985;53.180;5.800;2023-04-06T09:06:24;8.90;99.90
55091;DHT22;40985;53.180;5.800;2023-04-06T09:08:52;9.00;99.90
55091;DHT22;40985;53.180;5.800;2023-04-06T09:11:19;9.10;99.90
55091;DHT22;40985;53.180;5.800;2023-04-06T09:13:50;9.10;99.90
55091;DHT22;40985;53.180;5.800;2023-04-06T09:16:16;9.20;99.90
55091;DHT22;40985;53.180;5.800;2023-04-06T09:18:42;9.20;99.90
55091;DHT22;40985;53.180;5.800;2023-04-06T09:21:08;9.30;99.90
55091;DHT22;40985;53.180;5.800;2023-04-06T09:23:36;9.40;99.90
55091;DHT22;40985;53.180;5.800;2023-04-06T09:26:12;9.50;99.90
55091;DHT22;40985;53.180;5.800;2023-04-06T09:31:30;9.70;99.90
55091;DHT22;40985;53.180;5.800;2023-04-06T09:34:01;9.80;99.90
55091;DHT22;40985;53.180;5.800;2023-04-06T09:36:35;9.70;99.90
55091;DHT22;40985;53.180;5.800;2023-04-06T09:39:05;9.80;99.90
55091;DHT22;40985;53.180;5.800;2023-04-06T09:41:34;10.00;99.90
55091;DHT22;40985;53.180;5.800;2023-04-06T09:44:12;10.00;99.90
55091;DHT22;40985;53.180;5.800;2023-04-06T09:46:42;10.10;99.90
55091;DHT22;40985;53.180;5.800;2023-04-06T09:49:10;10.10;99.90
55091;DHT22;40985;53.180;5.800;2023-04-06T09:51:39;10.20;99.90
55091;DHT22;40985;53.180;5.800;2023-04-06T09:54:09;10.20;99.90
55091;DHT22;40985;53.180;5.800;2023-04-06T10:02:23;10.60;99.90
55091;DHT22;40985;53.180;5.800;2023-04-06T10:05:09;10.70;99.90
55091;DHT22;40985;53.180;5.800;2023-04-06T10:07:39;10.80;99.90
55091;DHT22;40985;53.180;5.800;2023-04-06T10:10:05;10.80;99.90
55091;DHT22;40985;53.180;5.800;2023-04-06T10:12:31;10.80;99.90
55091;DHT22;40985;53.180;5.800;2023-04-06T10:14:57;10.80;99.90
55091;DHT22;40985;53.180;5.800;2023-04-06T10:17:23;10.80;99.90
55091;DHT22;40985;53.180;5.800;2023-04-06T10:20:04;10.90;99.90
55091;DHT22;40985;53.180;5.800;2023-04-06T10:22:42;10.90;99.90
55091;DHT22;40985;53.180;5.800;2023-04-06T10:25:09;10.90;99.90
55091;DHT22;40985;53.180;5.800;2023-04-06T10:27:35;11.00;99.90
55091;DHT22;40985;53.180;5.800;2023-04-06T10:30:03;11.10;99.90
55091;DHT22;40985;53.180;5.800;2023-04-06T10:32:37;11.30;99.90
55091;DHT22;40985;53.180;5.800;2023-04-06T10:35:07;11.50;99.90
55091;DHT22;40985;53.180;5.800;2023-04-06T10:38:02;11.50;99.90
55091;DHT22;40985;53.180;5.800;2023-04-06T10:40:28;11.60;99.90
55091;DHT22;40985;53.180;5.800;2023-04-06T10:42:55;11.60;99.90
55091;DHT22;40985;53.180;5.800;2023-04-06T10:45:24;11.50;99.90
55091;DHT22;40985;53.180;5.800;2023-04-06T10:47:53;11.70;99.90
55091;DHT22;40985;53.180;5.800;2023-04-06T10:50:19;11.70;99.90
55091;DHT22;40985;53.180;5.800;2023-04-06T10:52:46;11.60;99.90
55091;DHT22;40985;53.180;5.800;2023-04-06T10:55:14;11.80;99.90
55091;DHT22;40985;53.180;5.800;2023-04-06T10:57:40;11.80;99.90
55091;DHT22;40985;53.180;5.800;2023-04-06T11:00:07;11.80;99.90
55091;DHT22;40985;53.180;5.800;2023-04-06T11:02:35;12.00;99.90
55091;DHT22;40985;53.180;5.800;2023-04-06T11:05:02;12.00;99.90
55091;DHT22;40985;53.180;5.800;2023-04-06T11:07:28;12.10;99.90
55091;DHT22;40985;53.180;5.800;2023-04-06T11:09:56;12.10;99.90
55091;DHT22;40985;53.180;5.800;2023-04-06T11:12:26;12.20;99.90
55091;DHT22;40985;53.180;5.800;2023-04-06T11:15:00;12.20;99.90
55091;DHT22;40985;53.180;5.800;2023-04-06T11:17:35;12.00;99.90
55091;DHT22;40985;53.180;5.800;2023-04-06T11:20:02;11.90;99.90
55091;DHT22;40985;53.180;5.800;2023-04-06T11:22:28;12.00;99.90
55091;DHT22;40985;53.180;5.800;2023-04-06T11:25:05;12.10;99.90
55091;DHT22;40985;53.180;5.800;2023-04-06T11:27:33;12.30;99.90
55091;DHT22;40985;53.180;5.800;2023-04-06T11:29:59;12.50;99.90
55091;DHT22;40985;53.180;5.800;2023-04-06T11:32:25;12.50;99.90
55091;DHT22;40985;53.180;5.800;2023-04-06T11:34:51;12.40;99.90
55091;DHT22;40985;53.180;5.800;2023-04-06T11:37:17;12.60;99.90
55091;DHT22;40985;53.180;5.800;2023-04-06T11:39:51;12.60;99.90
55091;DHT22;40985;53.180;5.800;2023-04-06T11:42:37;12.60;99.90
55091;DHT22;40985;53.180;5.800;2023-04-06T11:45:03;12.40;99.90
55091;DHT22;40985;53.180;5.800;2023-04-06T11:47:31;12.50;99.90
55091;DHT22;40985;53.180;5.800;2023-04-06T11:50:10;12.60;99.90
55091;DHT22;40985;53.180;5.800;2023-04-06T11:52:36;12.60;99.90
55091;DHT22;40985;53.180;5.800;2023-04-06T11:55:16;12.60;99.90
55091;DHT22;40985;53.180;5.800;2023-04-06T11:57:45;12.70;99.90
55091;DHT22;40985;53.180;5.800;2023-04-06T12:00:14;12.70;99.90
55091;DHT22;40985;53.180;5.800;2023-04-06T12:02:45;12.80;99.90
55091;DHT22;40985;53.180;5.800;2023-04-06T12:05:14;12.60;99.90
55091;DHT22;40985;53.180;5.800;2023-04-06T12:07:40;12.60;99.90
55091;DHT22;40985;53.180;5.800;2023-04-06T12:10:06;12.70;99.90
55091;DHT22;40985;53.180;5.800;2023-04-06T12:12:32;12.60;99.90
55091;DHT22;40985;53.180;5.800;2023-04-06T12:15:01;12.50;99.90
55091;DHT22;40985;53.180;5.800;2023-04-06T12:17:28;12.40;99.90
55091;DHT22;40985;53.180;5.800;2023-04-06T12:19:54;12.40;99.90
55091;DHT22;40985;53.180;5.800;2023-04-06T12:22:21;12.30;99.90
55091;DHT22;40985;53.180;5.800;2023-04-06T12:24:48;12.20;99.90
55091;DHT22;40985;53.180;5.800;2023-04-06T12:27:14;12.20;99.90
55091;DHT22;40985;53.180;5.800;2023-04-06T12:29:41;12.00;99.90
55091;DHT22;40985;53.180;5.800;2023-04-06T12:32:07;11.90;99.90
55091;DHT22;40985;53.180;5.800;2023-04-06T12:34:34;11.90;99.90
55091;DHT22;40985;53.180;5.800;2023-04-06T12:37:00;11.80;99.90
55091;DHT22;40985;53.180;5.800;2023-04-06T12:39:27;11.90;99.90
55091;DHT22;40985;53.180;5.800;2023-04-06T12:41:53;12.00;99.90
55091;DHT22;40985;53.180;5.800;2023-04-06T12:44:18;12.00;99.90
55091;DHT22;40985;53.180;5.800;2023-04-06T12:46:44;11.70;99.90
55091;DHT22;40985;53.180;5.800;2023-04-06T12:49:10;11.70;99.90
55091;DHT22;40985;53.180;5.800;2023-04-06T12:51:39;11.60;99.90
55091;DHT22;40985;53.180;5.800;2023-04-06T12:54:05;11.50;99.90
55091;DHT22;40985;53.180;5.800;2023-04-06T12:56:31;11.50;99.90
55091;DHT22;40985;53.180;5.800;2023-04-06T12:58:58;11.60;99.90
55091;DHT22;40985;53.180;5.800;2023-04-06T13:01:25;11.40;99.90
55091;DHT22;40985;53.180;5.800;2023-04-06T13:03:53;11.30;99.90
55091;DHT22;40985;53.180;5.800;2023-04-06T13:06:19;11.30;99.90
55091;DHT22;40985;53.180;5.800;2023-04-06T13:08:46;10.90;99.90
55091;DHT22;40985;53.180;5.800;2023-04-06T13:11:12;10.80;99.90
55091;DHT22;40985;53.180;5.800;2023-04-06T13:13:38;10.60;99.90
55091;DHT22;40985;53.180;5.800;2023-04-06T13:16:07;10.40;99.90
55091;DHT22;40985;53.180;5.800;2023-04-06T13:18:33;10.40;99.90
55091;DHT22;40985;53.180;5.800;2023-04-06T13:21:00;10.20;99.90
55091;DHT22;40985;53.180;5.800;2023-04-06T13:23:26;10.10;99.90
55091;DHT22;40985;53.180;5.800;2023-04-06T13:26:08;9.90;99.90
55091;DHT22;40985;53.180;5.800;2023-04-06T13:28:43;9.80;99.90
55091;DHT22;40985;53.180;5.800;2023-04-06T13:31:09;9.70;99.90
55091;DHT22;40985;53.180;5.800;2023-04-06T13:33:35;9.60;99.90
55091;DHT22;40985;53.180;5.800;2023-04-06T13:36:02;9.60;99.90
55091;DHT22;40985;53.180;5.800;2023-04-06T13:38:27;9.60;99.90
55091;DHT22;40985;53.180;5.800;2023-04-06T13:40:53;9.50;99.90
55091;DHT22;40985;53.180;5.800;2023-04-06T13:43:21;9.40;99.90
55091;DHT22;40985;53.180;5.800;2023-04-06T13:45:51;9.50;99.90
55091;DHT22;40985;53.180;5.800;2023-04-06T13:48:17;9.50;99.90
55091;DHT22;40985;53.180;5.800;2023-04-06T13:50:44;9.50;99.90
55091;DHT22;40985;53.180;5.800;2023-04-06T13:53:12;9.30;99.90
55091;DHT22;40985;53.180;5.800;2023-04-06T13:55:40;9.40;99.90
55091;DHT22;40985;53.180;5.800;2023-04-06T13:58:06;9.30;99.90
55091;DHT22;40985;53.180;5.800;2023-04-06T14:00:32;9.20;99.90
55091;DHT22;40985;53.180;5.800;2023-04-06T14:02:57;9.20;99.90
55091;DHT22;40985;53.180;5.800;2023-04-06T14:05:23;9.10;99.90
55091;DHT22;40985;53.180;5.800;2023-04-06T14:07:49;9.10;99.90
55091;DHT22;40985;53.180;5.800;2023-04-06T14:10:15;9.00;99.90
55091;DHT22;40985;53.180;5.800;2023-04-06T14:12:44;9.00;99.90
55091;DHT22;40985;53.180;5.800;2023-04-06T14:15:11;9.00;99.90
55091;DHT22;40985;53.180;5.800;2023-04-06T14:17:37;8.90;99.90
55091;DHT22;40985;53.180;5.800;2023-04-06T14:20:06;8.90;99.90
55091;DHT22;40985;53.180;5.800;2023-04-06T14:22:32;8.80;99.90
55091;DHT22;40985;53.180;5.800;2023-04-06T14:24:57;8.70;99.90
55091;DHT22;40985;53.180;5.800;2023-04-06T14:27:24;8.70;99.90
55091;DHT22;40985;53.180;5.800;2023-04-06T14:29:50;8.70;99.90
55091;DHT22;40985;53.180;5.800;2023-04-06T14:32:16;8.70;99.90
55091;DHT22;40985;53.180;5.800;2023-04-06T14:34:42;8.60;99.90
55091;DHT22;40985;53.180;5.800;2023-04-06T14:37:09;8.50;99.90
55091;DHT22;40985;53.180;5.800;2023-04-06T14:39:35;8.50;99.90
55091;DHT22;40985;53.180;5.800;2023-04-06T14:42:01;8.50;99.90
55091;DHT22;40985;53.180;5.800;2023-04-06T14:44:33;8.40;99.90
55091;DHT22;40985;53.180;5.800;2023-04-06T14:47:02;8.40;99.90
55091;DHT22;40985;53.180;5.800;2023-04-06T14:49:29;8.30;99.90
55091;DHT22;40985;53.180;5.800;2023-04-06T14:51:55;8.30;99.90
55091;DHT22;40985;53.180;5.800;2023-04-06T14:54:20;8.20;99.90
55091;DHT22;40985;53.180;5.800;2023-04-06T14:56:49;8.30;99.90
55091;DHT22;40985;53.180;5.800;2023-04-06T14:59:15;8.30;99.90
55091;DHT22;40985;53.180;5.800;2023-04-06T15:01:46;8.20;99.90
55091;DHT22;40985;53.180;5.800;2023-04-06T15:04:12;8.20;99.90
55091;DHT22;40985;53.180;5.800;2023-04-06T15:06:39;8.20;99.90
55091;DHT22;40985;53.180;5.800;2023-04-06T15:09:07;8.10;99.90
55091;DHT22;40985;53.180;5.800;2023-04-06T15:11:32;8.10;99.90
55091;DHT22;40985;53.180;5.800;2023-04-06T15:13:59;8.20;99.90
55091;DHT22;40985;53.180;5.800;2023-04-06T15:16:25;8.10;99.90
55091;DHT22;40985;53.180;5.800;2023-04-06T15:18:51;8.10;99.90
55091;DHT22;40985;53.180;5.800;2023-04-06T15:21:18;8.10;99.90
55091;DHT22;40985;53.180;5.800;2023-04-06T15:23:46;8.20;99.90
55091;DHT22;40985;53.180;5.800;2023-04-06T15:26:11;8.20;99.90
55091;DHT22;40985;53.180;5.800;2023-04-06T15:28:37;8.20;99.90
55091;DHT22;40985;53.180;5.800;2023-04-06T15:31:03;8.20;99.90
55091;DHT22;40985;53.180;5.800;2023-04-06T15:33:34;8.10;99.90
55091;DHT22;40985;53.180;5.800;2023-04-06T15:36:08;8.10;99.90
55091;DHT22;40985;53.180;5.800;2023-04-06T15:38:47;8.10;99.90
55091;DHT22;40985;53.180;5.800;2023-04-06T15:41:17;7.90;99.90
55091;DHT22;40985;53.180;5.800;2023-04-06T15:43:44;7.90;99.90
55091;DHT22;40985;53.180;5.800;2023-04-06T15:46:10;7.90;99.90
55091;DHT22;40985;53.180;5.800;2023-04-06T15:48:37;7.80;99.90
55091;DHT22;40985;53.180;5.800;2023-04-06T15:51:03;7.70;99.90